• Join FlightAware (Why Join?)
  • Login
  • US Flag 
04:36AM EST


 

Airport Tracker/Info


-or-


 

Live Flight TrackerFlight Track Log ✈ SKW5564 ✈ 11-May-2013 ✈ KLAS - KSFO

Flight Track Log - Related Links

Times and Time Zones

All times are in EDT time to prevent confusion due to time zone crossing. See the SKW5564 flight status page for this flight to view local times or setup timezone preferences in your user account.

Time Position Orientation Groundspeed Altitude Reporting Facility
EDT Latitude Longitude Course Direction KTS MPH feet Rate Location/Type
02:24PM 36.0753 -115.1739 270° West 168 193 3,000  Level Los Angeles Center
02:25PM 36.0672 -115.2564 263° West 219 252 5,100 1,500 Climbing Los Angeles Center
02:26PM 36.0297 -115.2797 207° Southwest 245 282 6,000 1,980 Climbing Los Angeles Center
02:26PM 35.9878 -115.2983 200° South 287 330 7,300 3,060 Climbing Los Angeles Center
02:27PM 35.8834 -115.5484 270° West  Level FlightAware Approximate
02:27PM 35.9425 -115.3342 213° Southwest 284 327 9,200  Level Los Angeles Center
02:28PM 35.8834 -115.6957 270° West  Level FlightAware Approximate
02:28PM 35.8864 -115.4183 231° Southwest 305 351 11,000  Level Los Angeles Center
02:29PM 35.8834 -115.8429 270° West  Level FlightAware Approximate
02:29PM 35.8881 -115.5308 271° West 319 367 11,000  Level Los Angeles Center
02:30PM 35.8906 -115.6519 271° West 323 372 11,600 1,380 Climbing Los Angeles Center
02:31PM 35.8917 -115.7664 271° West 331 381 13,900 2,220 Climbing Los Angeles Center
02:32PM 35.8942 -115.8847 272° West 344 396 16,300 2,100 Climbing Los Angeles Center
02:33PM 35.9244 -116.0044 287° West 354 407 18,300 1,800 Climbing Los Angeles Center
02:34PM 35.9986 -116.0878 318° Northwest 361 415 20,100 1,980 Climbing Los Angeles Center
02:35PM 36.0803 -116.1817 317° Northwest 370 426 22,500 2,040 Climbing Los Angeles Center
02:36PM 36.1497 -116.2625 317° Northwest 368 423 24,400 1,740 Climbing Los Angeles Center
02:37PM 36.2264 -116.3500 317° Northwest 373 429 26,200 1,560 Climbing Los Angeles Center
02:38PM 36.3031 -116.4381 317° Northwest 375 432 27,700 1,500 Climbing Los Angeles Center
02:39PM 36.3950 -116.5458 317° Northwest 379 436 29,300 1,200 Climbing Los Angeles Center
02:40PM 36.4758 -116.6406 317° Northwest 390 449 30,200 840 Climbing Los Angeles Center
02:41PM 36.5592 -116.7386 317° Northwest 404 465 31,100 900 Climbing Los Angeles Center
02:42PM 36.6567 -116.8164 327° Northwest 413 475 32,100 960 Climbing Los Angeles Center
02:43PM 36.7522 -116.8892 329° Northwest 413 475 33,200 1,260 Climbing Los Angeles Center
02:45PM 36.8906 -116.9969 328° Northwest 411 473 35,000 1,320 Climbing Oakland Center
02:46PM 36.9839 -117.0672 329° Northwest 396 456 36,300 1,080 Climbing Oakland Center
02:47PM 37.0769 -117.1400 328° Northwest 394 453 37,300 780 Climbing Oakland Center
02:48PM 37.1694 -117.2108 329° Northwest 390 449 38,000 300 Climbing Oakland Center
02:49PM 37.2617 -117.2814 329° Northwest 388 447 38,000  Level Oakland Center
02:50PM 37.3586 -117.3481 331° Northwest 395 455 38,000  Level Oakland Center
02:51PM 37.4411 -117.4444 317° Northwest 406 467 38,000  Level Oakland Center
02:52PM 37.4747 -117.5897 286° West 436 502 38,000  Level Oakland Center
02:53PM 37.4842 -117.7444 274° West 442 509 38,000  Level Oakland Center
02:54PM 37.4931 -117.8992 274° West 442 509 38,000  Level Oakland Center
02:55PM 37.5008 -118.0542 274° West 442 509 38,000  Level Oakland Center
02:56PM 37.5097 -118.2100 274° West 444 511 38,000  Level Oakland Center
02:57PM 37.5183 -118.3656 274° West 445 512 38,000  Level Oakland Center
02:58PM 37.5275 -118.5492 274° West 439 505 38,000  Level Oakland Center
02:59PM 37.5364 -118.7019 274° West 436 502 38,000  Level Oakland Center
03:00PM 37.5425 -118.8386 273° West 435 501 38,000  Level Oakland Center
03:01PM 37.5494 -118.9894 273° West 433 498 38,000  Level Oakland Center
03:02PM 37.5586 -119.1447 274° West 451 519 38,000  Level Oakland Center
03:03PM 37.5675 -119.3286 274° West 439 505 38,000  Level Oakland Center
03:04PM 37.5728 -119.4803 273° West 425 489 38,000  Level Oakland Center
03:05PM 37.5764 -119.6217 272° West 417 480 38,000 -180 Level Oakland Center
03:06PM 37.5839 -119.7719 274° West 429 494 37,700 -660 Descending Oakland Center
03:07PM 37.5883 -119.9236 272° West 427 491 36,700 -1,080 Descending Oakland Center
03:08PM 37.5939 -120.0775 273° West 432 497 35,600 -1,860 Descending Oakland Center
03:09PM 37.6025 -120.2239 274° West 424 488 33,000 -2,520 Descending Oakland Center
03:10PM 37.6092 -120.3781 273° West 437 503 30,500 -2,100 Descending Oakland Center
03:11PM 37.6167 -120.5500 273° West 403 464 28,700 -1,920 Descending Northern Cal TRACON
03:12PM 37.6167 -120.6833 270° West 383 441 26,600 -2,100 Descending Northern Cal TRACON
03:13PM 37.6167 -120.8167 270° West 371 427 24,600 -2,100 Descending Northern Cal TRACON
03:14PM 37.6333 -120.9500 279° West 364 419 22,400 -2,160 Descending Northern Cal TRACON
03:15PM 37.6167 -121.0667 260° West 357 411 20,300 -2,160 Descending Northern Cal TRACON
03:16PM 37.5667 -121.1667 238° Southwest 351 404 18,100 -1,920 Descending Northern Cal TRACON
03:18PM 37.4667 -121.3167 230° Southwest 321 369 14,600 -1,740 Descending Northern Cal TRACON
03:19PM 37.4833 -121.4167 282° West 305 351 13,000 -1,320 Descending Northern Cal TRACON
03:21PM 37.5000 -121.6167 276° West 298 343 10,800 -1,140 Descending Northern Cal TRACON
03:22PM 37.5000 -121.7167 270° West 285 328 9,600 -1,080 Descending Northern Cal TRACON
03:24PM 37.5003 -121.9436 270° West 291 335 7,500 -1,080 Descending Oakland Center
03:25PM 37.5000 -122.0167 270° West 284 327 6,400 -960 Descending Northern Cal TRACON
03:26PM 37.5000 -122.1000 270° West 222 255 5,800 -1,080 Descending Northern Cal TRACON
03:27PM 37.5333 -122.1667 302° West 198 228 4,300 -1,500 Descending Northern Cal TRACON